FASB

Springbok Airport

Springbok, South Africa
METAR FASB 160941Z 12006KT CAVOK 23/M08 Q1021
Observed Flight Rules
Oct-16 @ 09:41 UTC (9 hours ago) Visual Flight Rules
Wind Visibility Clouds
120° at 6 knots 10,000+ meters
  • Clear skies
Temperatures Readings
Current 23°C / 73°F
Dewpoint -8°C / 18°F
Humidity 12%
Altimeter 30.15" Hg
Pressure 1021 hPa
Elevation 813
METAR FASB 160941Z 12006KT CAVOK 23/M08 Q1021
Observed Flight Rules
Oct-16 @ 09:41 UTC
(9 hours ago)
VFR
Wind Visibility
120° at 6 knots 10,000+ meters
Clouds
  • Clear skies
Temperature Dewpoint
23°C / 73°F -8°C / 18°F
Humidity Altimeter Pressure
12% 30.15" Hg 1021 hPa